createdAt,value
2023-11-10T00:03:21.151Z,8.49
2023-11-10T00:08:24.225Z,8.43
2023-11-10T00:13:27.080Z,8.43
2023-11-10T00:18:30.113Z,8.43
2023-11-10T00:23:33.077Z,8.44
2023-11-10T00:28:38.542Z,8.41
2023-11-10T00:33:41.518Z,8.35
2023-11-10T00:38:48.599Z,8.26
2023-11-10T00:43:53.788Z,8.19
2023-11-10T00:48:56.702Z,8.12
2023-11-10T00:54:01.280Z,8.00
2023-11-10T00:59:04.564Z,7.85
2023-11-10T01:04:09.261Z,7.79
2023-11-10T01:09:13.650Z,7.89
2023-11-10T01:14:16.776Z,8.04
2023-11-10T01:19:19.656Z,8.16
2023-11-10T01:24:23.043Z,8.24
2023-11-10T01:29:26.372Z,8.27
2023-11-10T01:34:29.496Z,8.28
2023-11-10T01:39:32.596Z,8.30
2023-11-10T01:44:39.888Z,8.37
2023-11-10T01:49:43.106Z,8.45
2023-11-10T01:54:46.223Z,8.55
2023-11-10T01:59:55.992Z,8.64
2023-11-10T02:04:59.418Z,8.72
2023-11-10T02:10:02.377Z,8.79
2023-11-10T02:15:08.212Z,8.86
2023-11-10T02:20:11.366Z,8.93
2023-11-10T02:25:19.844Z,8.95
2023-11-10T02:30:22.677Z,8.99
2023-11-10T02:35:25.516Z,9.02
2023-11-10T02:40:28.352Z,9.03
2023-11-10T02:45:31.305Z,9.08
2023-11-10T02:50:34.404Z,9.09
2023-11-10T02:55:37.350Z,9.11
2023-11-10T03:00:42.196Z,9.13
2023-11-10T03:05:45.301Z,9.16
2023-11-10T03:10:48.084Z,9.17
2023-11-10T03:15:51.013Z,9.19
2023-11-10T03:20:53.844Z,9.22
2023-11-10T03:25:57.102Z,9.21
2023-11-10T03:31:01.034Z,9.19
2023-11-10T03:36:05.504Z,9.16
2023-11-10T03:41:08.650Z,9.11
2023-11-10T03:46:12.512Z,9.01
2023-11-10T03:51:16.302Z,8.95
2023-11-10T03:56:19.279Z,8.88
2023-11-10T04:01:22.419Z,8.82
2023-11-10T04:06:34.913Z,8.77
2023-11-10T04:11:42.848Z,8.73
2023-11-10T04:16:45.781Z,8.68
2023-11-10T04:21:48.977Z,8.64
2023-11-10T04:26:51.817Z,8.62
2023-11-10T04:31:55.017Z,8.62
2023-11-10T04:36:58.275Z,8.64
2023-11-10T04:42:02.608Z,8.67
2023-11-10T04:47:05.915Z,8.68
2023-11-10T04:52:08.865Z,8.70
2023-11-10T04:57:11.810Z,8.71
2023-11-10T05:02:14.927Z,8.72
2023-11-10T05:07:17.847Z,8.74
2023-11-10T05:12:21.422Z,8.75
2023-11-10T05:17:25.126Z,8.75
2023-11-10T05:22:30.409Z,8.73
2023-11-10T05:27:33.360Z,8.66
2023-11-10T05:32:36.297Z,8.56
2023-11-10T05:37:39.166Z,8.47
2023-11-10T05:42:42.053Z,8.37
2023-11-10T05:47:44.872Z,8.26
2023-11-10T05:52:47.773Z,8.18
2023-11-10T05:57:50.671Z,8.15
2023-11-10T06:02:53.729Z,8.17
2023-11-10T06:07:56.537Z,8.19
2023-11-10T06:12:59.432Z,8.22
2023-11-10T06:18:02.326Z,8.25
2023-11-10T06:23:05.464Z,8.21
2023-11-10T06:28:08.459Z,8.09
2023-11-10T06:33:11.564Z,7.96
2023-11-10T06:38:14.900Z,7.85
2023-11-10T06:43:17.737Z,7.80
2023-11-10T06:48:20.712Z,7.83
2023-11-10T06:53:31.933Z,7.83
2023-11-10T06:58:42.780Z,7.84
2023-11-10T07:03:48.298Z,7.82
2023-11-10T07:09:29.723Z,7.84
2023-11-10T07:14:38.906Z,7.90
2023-11-10T07:20:12.812Z,7.99
2023-11-10T07:25:15.787Z,8.10
2023-11-10T07:30:20.358Z,8.20
2023-11-10T07:35:23.284Z,8.26
2023-11-10T07:40:26.773Z,8.30
2023-11-10T07:45:30.518Z,8.40
2023-11-10T07:50:33.772Z,8.54
2023-11-10T07:55:36.740Z,8.68
2023-11-10T08:00:39.630Z,8.84
2023-11-10T08:05:42.975Z,9.09
2023-11-10T08:10:45.833Z,9.84
2023-11-10T08:15:49.183Z,10.42
2023-11-10T08:20:52.309Z,10.58
2023-11-10T08:25:55.236Z,10.55
2023-11-10T08:30:58.188Z,10.50
2023-11-10T08:36:01.266Z,10.60
2023-11-10T08:41:05.350Z,11.00
2023-11-10T08:46:09.168Z,11.50
2023-11-10T08:51:12.154Z,11.79
2023-11-10T08:56:15.110Z,12.08
2023-11-10T09:01:18.998Z,12.22
2023-11-10T09:06:21.992Z,12.10
2023-11-10T09:11:24.876Z,12.06
2023-11-10T10:40:30.192Z,12.36
2023-11-10T10:45:37.364Z,12.16
2023-11-10T10:50:41.611Z,11.99
2023-11-10T10:55:51.995Z,11.80
2023-11-10T11:00:54.946Z,11.69
2023-11-10T11:06:29.269Z,11.65
2023-11-10T11:12:07.108Z,11.67
2023-11-10T11:17:18.880Z,11.67
2023-11-10T11:22:21.853Z,11.69
2023-11-10T11:27:26.065Z,11.73
2023-11-10T11:32:33.422Z,11.74
2023-11-10T11:37:39.559Z,11.78
2023-11-10T11:42:43.173Z,11.87
2023-11-10T11:47:50.663Z,11.91
2023-11-10T11:52:54.810Z,11.98
2023-11-10T11:57:59.587Z,12.07
2023-11-10T12:03:05.780Z,12.11
2023-11-10T12:08:09.118Z,12.13
2023-11-10T12:13:17.790Z,12.13
2023-11-10T12:18:21.102Z,12.08
2023-11-10T12:23:23.928Z,12.05
2023-11-10T12:28:26.902Z,11.96
2023-11-10T12:33:30.080Z,11.90
2023-11-10T12:38:35.226Z,11.83
2023-11-10T12:43:39.501Z,11.75
2023-11-10T12:48:43.038Z,11.69
2023-11-10T12:53:46.106Z,11.63
2023-11-10T12:58:49.068Z,11.56
2023-11-10T13:03:52.028Z,11.47
2023-11-10T13:08:58.545Z,11.40
2023-11-10T13:14:03.036Z,11.34
2023-11-10T13:19:07.684Z,11.28
2023-11-10T13:24:13.992Z,11.22
2023-11-10T13:29:18.638Z,11.19
2023-11-10T13:34:22.867Z,11.19
2023-11-10T13:39:26.611Z,11.17
2023-11-10T13:44:29.676Z,11.16
2023-11-10T13:49:33.264Z,11.12
2023-11-10T13:54:36.749Z,11.07
2023-11-10T13:59:41.488Z,11.02
2023-11-10T14:04:44.861Z,10.99
2023-11-10T14:09:48.914Z,10.94
2023-11-10T14:14:53.967Z,10.88
2023-11-10T14:19:56.970Z,10.80
2023-11-10T14:24:59.876Z,10.74
2023-11-10T14:30:06.538Z,10.66
2023-11-10T14:35:11.931Z,10.58
2023-11-10T14:40:19.012Z,10.49
2023-11-10T14:45:23.380Z,10.39
2023-11-10T14:50:37.726Z,10.32
2023-11-10T14:55:40.796Z,10.27
2023-11-10T15:00:44.452Z,10.23
2023-11-10T15:05:47.477Z,10.21
2023-11-10T15:10:50.465Z,10.18
2023-11-10T15:15:53.828Z,10.13
2023-11-10T15:20:56.949Z,10.08
2023-11-10T15:26:00.261Z,10.02
2023-11-10T15:31:07.952Z,10.01
2023-11-10T15:36:11.088Z,10.01
2023-11-10T15:41:14.004Z,10.06
2023-11-10T15:46:17.152Z,10.09
2023-11-10T15:51:20.126Z,10.08
2023-11-10T15:56:23.059Z,10.06
2023-11-10T16:01:26.069Z,10.05
2023-11-10T16:06:30.119Z,10.06
2023-11-10T16:11:34.506Z,10.02
2023-11-10T16:16:37.340Z,9.95
2023-11-10T16:21:40.221Z,9.86
2023-11-10T16:26:43.416Z,9.81
2023-11-10T16:31:46.881Z,9.77
2023-11-10T16:36:50.437Z,9.73
2023-11-10T16:41:53.498Z,9.72
2023-11-10T16:46:56.854Z,9.72
2023-11-10T16:52:05.611Z,9.72
2023-11-10T16:57:08.727Z,9.70
2023-11-10T17:02:12.042Z,9.65
2023-11-10T17:07:16.467Z,9.61
2023-11-10T17:12:19.404Z,9.56
2023-11-10T17:17:23.956Z,9.51
2023-11-10T17:22:26.895Z,9.49
2023-11-10T17:27:29.972Z,9.50
2023-11-10T17:32:33.237Z,9.47
2023-11-10T17:37:36.251Z,9.44
2023-11-10T17:42:39.354Z,9.42
2023-11-10T17:47:43.048Z,9.39
2023-11-10T17:52:46.449Z,9.40
2023-11-10T17:57:49.574Z,9.44
2023-11-10T18:02:53.380Z,9.48
2023-11-10T18:07:56.483Z,9.49
2023-11-10T18:12:59.491Z,9.51
2023-11-10T18:18:03.610Z,9.51
2023-11-10T18:23:07.436Z,9.49
2023-11-10T18:28:10.638Z,9.45
2023-11-10T18:33:13.710Z,9.43
2023-11-10T18:38:16.635Z,9.38
2023-11-10T18:43:19.595Z,9.35
2023-11-10T18:48:22.718Z,9.32
2023-11-10T18:53:27.173Z,9.30
2023-11-10T18:58:30.060Z,9.31
2023-11-10T19:03:35.104Z,9.34
2023-11-10T19:08:40.319Z,9.40
2023-11-10T19:13:43.153Z,9.47
2023-11-10T19:18:46.679Z,9.51
2023-11-10T19:23:49.588Z,9.54
2023-11-10T19:28:53.766Z,9.53
2023-11-10T19:33:57.252Z,9.52
2023-11-10T19:39:00.241Z,9.52
2023-11-10T19:44:03.462Z,9.51
2023-11-10T19:49:06.439Z,9.52
2023-11-10T20:04:21.168Z,9.62
2023-11-10T20:09:24.332Z,9.67
2023-11-10T20:14:27.744Z,9.69
2023-11-10T20:19:33.195Z,9.74
2023-11-10T20:24:41.623Z,9.77
2023-11-10T20:29:47.840Z,9.81
2023-11-10T20:34:50.679Z,9.84
2023-11-10T20:39:53.608Z,9.84
2023-11-10T20:44:57.623Z,9.86
2023-11-10T20:50:00.779Z,9.88
2023-11-10T20:55:06.496Z,9.87
2023-11-10T21:00:10.575Z,9.87
2023-11-10T21:05:14.431Z,9.85
2023-11-10T21:10:17.437Z,9.78
2023-11-10T21:15:20.338Z,9.71
2023-11-10T21:20:23.303Z,9.65
2023-11-10T21:25:26.264Z,9.60
2023-11-10T21:30:29.307Z,9.57
2023-11-10T21:35:32.286Z,9.56
2023-11-10T21:40:39.720Z,9.55
2023-11-10T21:45:44.578Z,9.57
2023-11-10T21:50:48.357Z,9.60
2023-11-10T21:55:51.205Z,9.62
2023-11-10T22:00:54.149Z,9.61
2023-11-10T22:05:56.964Z,9.62
2023-11-10T22:10:59.827Z,9.58
2023-11-10T22:16:03.753Z,9.53
2023-11-10T22:21:06.693Z,9.49
2023-11-10T22:26:09.613Z,9.46
2023-11-10T22:31:13.321Z,9.42
2023-11-10T22:36:16.217Z,9.38
2023-11-10T22:41:19.035Z,9.32
2023-11-10T22:46:23.468Z,9.27
2023-11-10T22:51:27.008Z,9.23
2023-11-10T22:56:29.970Z,9.19
2023-11-10T23:01:33.246Z,9.13
2023-11-10T23:06:36.229Z,9.13
2023-11-10T23:11:42.356Z,9.11
2023-11-10T23:16:45.292Z,9.10
2023-11-10T23:21:48.257Z,9.06
2023-11-10T23:26:51.430Z,9.01
2023-11-10T23:31:54.314Z,8.96
2023-11-10T23:36:57.119Z,8.93
2023-11-10T23:41:59.977Z,8.91
2023-11-10T23:47:03.228Z,8.88
2023-11-10T23:52:07.074Z,8.85
2023-11-10T23:57:09.954Z,8.84
